createdAt,value
2023-02-01T00:01:33.393Z,12.02
2023-02-01T00:04:01.945Z,11.85
2023-02-01T00:06:30.530Z,11.02
2023-02-01T00:09:01.932Z,11.65
2023-02-01T00:11:30.509Z,10.07
2023-02-01T00:13:59.338Z,9.70
2023-02-01T00:16:30.491Z,9.90
2023-02-01T00:19:01.952Z,9.35
2023-02-01T00:21:30.661Z,10.43
2023-02-01T00:23:59.526Z,9.65
2023-02-01T00:26:32.467Z,8.98
2023-02-01T00:29:01.317Z,8.80
2023-02-01T00:31:31.548Z,8.20
2023-02-01T00:34:00.213Z,7.95
2023-02-01T00:36:29.458Z,8.93
2023-02-01T00:38:57.966Z,7.20
2023-02-01T00:41:27.137Z,8.02
2023-02-01T00:43:55.772Z,7.53
2023-02-01T00:46:24.446Z,8.23
2023-02-01T00:48:54.364Z,7.82
2023-02-01T00:51:25.492Z,7.50
2023-02-01T00:53:54.028Z,6.60
2023-02-01T00:56:22.636Z,7.40
2023-02-01T00:58:51.295Z,7.10
2023-02-01T01:01:21.295Z,7.40
2023-02-01T01:03:51.789Z,6.82
2023-02-01T01:06:23.503Z,6.53
2023-02-01T01:08:53.628Z,6.63
2023-02-01T01:11:24.006Z,6.32
2023-02-01T01:13:54.281Z,6.90
2023-02-01T01:16:23.167Z,6.32
2023-02-01T01:18:51.903Z,6.72
2023-02-01T01:21:22.063Z,6.38
2023-02-01T01:23:50.701Z,5.70
2023-02-01T01:26:20.859Z,6.40
2023-02-01T01:28:49.633Z,6.25
2023-02-01T01:31:19.400Z,5.32
2023-02-01T01:33:50.932Z,5.70
2023-02-01T01:36:19.489Z,5.90
2023-02-01T01:38:49.409Z,5.28
2023-02-01T01:41:19.240Z,5.53
2023-02-01T01:43:56.737Z,5.40
2023-02-01T01:46:26.783Z,5.45
2023-02-01T01:49:01.720Z,4.90
2023-02-01T01:51:30.998Z,4.90
2023-02-01T01:54:06.303Z,4.93
2023-02-01T01:56:34.799Z,5.05
2023-02-01T01:59:03.783Z,4.57
2023-02-01T02:01:32.410Z,4.90
2023-02-01T02:04:00.941Z,4.45
2023-02-01T02:06:39.790Z,4.53
2023-02-01T02:09:10.005Z,4.95
2023-02-01T02:11:38.874Z,4.25
2023-02-01T02:14:07.597Z,4.70
2023-02-01T02:16:58.674Z,4.20
2023-02-01T02:20:25.151Z,4.38
2023-02-01T02:23:39.182Z,4.22
2023-02-01T02:26:44.734Z,4.05
2023-02-01T02:30:20.135Z,4.38
2023-02-01T02:33:47.618Z,4.50
2023-02-01T02:36:21.773Z,3.75
2023-02-01T02:38:55.011Z,4.50
2023-02-01T02:41:46.294Z,3.75
2023-02-01T02:44:35.921Z,4.35
2023-02-01T02:47:26.084Z,3.53
2023-02-01T02:50:16.155Z,3.95
2023-02-01T02:53:06.135Z,3.90
2023-02-01T02:55:34.965Z,3.63
2023-02-01T02:58:20.938Z,3.58
2023-02-01T03:01:06.658Z,3.97
2023-02-01T03:03:56.683Z,3.42
2023-02-01T03:06:25.949Z,3.70
2023-02-01T03:08:58.184Z,3.55
2023-02-01T03:11:48.642Z,3.15
2023-02-01T03:14:16.242Z,3.53
2023-02-01T03:16:48.706Z,4.13
2023-02-01T03:19:21.452Z,3.90
2023-02-01T03:24:34.232Z,3.40
2023-02-01T03:27:09.787Z,3.30
2023-02-01T03:29:42.412Z,3.53
2023-02-01T03:32:11.529Z,3.28
2023-02-01T03:34:40.142Z,3.58
2023-02-01T03:37:11.363Z,2.80
2023-02-01T03:39:45.863Z,3.05
2023-02-01T03:42:18.276Z,3.47
2023-02-01T03:44:51.577Z,3.38
2023-02-01T03:47:22.155Z,3.03
2023-02-01T03:49:52.987Z,2.95
2023-02-01T03:52:25.030Z,3.38
2023-02-01T03:54:55.030Z,3.28
2023-02-01T03:57:27.790Z,2.97
2023-02-01T03:59:56.543Z,3.20
2023-02-01T04:02:25.077Z,3.10
2023-02-01T04:04:53.751Z,3.25
2023-02-01T04:07:22.343Z,2.83
2023-02-01T04:09:50.937Z,2.72
2023-02-01T04:12:20.965Z,3.08
2023-02-01T04:14:49.575Z,2.83
2023-02-01T04:17:18.204Z,2.95
2023-02-01T04:19:46.740Z,2.95
2023-02-01T04:24:42.840Z,2.53
2023-02-01T04:27:11.477Z,2.50
2023-02-01T04:29:42.060Z,2.95
2023-02-01T04:32:10.768Z,2.58
2023-02-01T04:34:39.298Z,2.60
2023-02-01T04:37:08.424Z,2.75
2023-02-01T04:39:36.941Z,2.75
2023-02-01T04:42:05.797Z,2.80
2023-02-01T04:44:38.022Z,2.80
2023-02-01T04:47:07.950Z,2.78
2023-02-01T04:49:36.570Z,2.50
2023-02-01T04:52:05.639Z,2.85
2023-02-01T04:54:34.813Z,2.70
2023-02-01T04:57:03.483Z,2.72
2023-02-01T04:59:32.101Z,2.60
2023-02-01T05:02:00.615Z,2.83
2023-02-01T05:04:30.770Z,2.40
2023-02-01T05:06:59.436Z,2.70
2023-02-01T05:09:28.357Z,2.50
2023-02-01T05:12:14.366Z,2.70
2023-02-01T05:14:42.999Z,2.33
2023-02-01T05:17:11.590Z,2.47
2023-02-01T05:19:41.721Z,2.58
2023-02-01T05:22:10.301Z,2.70
2023-02-01T05:24:39.296Z,2.20
2023-02-01T05:27:07.916Z,2.50
2023-02-01T05:29:36.549Z,2.50
2023-02-01T05:32:21.254Z,2.40
2023-02-01T05:34:51.904Z,2.50
2023-02-01T05:37:20.570Z,2.17
2023-02-01T05:39:49.099Z,2.13
2023-02-01T05:42:17.597Z,2.65
2023-02-01T05:44:46.193Z,3.10
2023-02-01T05:47:14.678Z,2.35
2023-02-01T05:49:43.410Z,2.60
2023-02-01T05:52:13.419Z,2.85
2023-02-01T05:54:41.939Z,2.45
2023-02-01T05:57:10.519Z,2.28
2023-02-01T05:59:42.075Z,2.50
2023-02-01T06:02:11.196Z,2.50
2023-02-01T06:04:40.139Z,2.55
2023-02-01T06:07:10.176Z,2.38
2023-02-01T06:09:40.166Z,2.30
2023-02-01T06:12:09.273Z,2.45
2023-02-01T06:14:38.270Z,2.30
2023-02-01T06:17:08.026Z,2.40
2023-02-01T06:19:36.902Z,2.10
2023-02-01T06:22:07.224Z,2.15
2023-02-01T06:24:35.821Z,2.40
2023-02-01T06:27:05.886Z,2.50
2023-02-01T06:29:34.391Z,2.50
2023-02-01T06:32:03.004Z,2.05
2023-02-01T06:34:31.723Z,2.40
2023-02-01T06:37:00.267Z,2.28
2023-02-01T06:39:29.528Z,2.17
2023-02-01T06:41:58.407Z,2.28
2023-02-01T06:44:28.425Z,2.15
2023-02-01T06:46:57.157Z,2.28
2023-02-01T06:49:26.024Z,2.05
2023-02-01T06:51:54.553Z,2.10
2023-02-01T06:54:23.127Z,2.75
2023-02-01T06:56:51.707Z,3.63
2023-02-01T06:59:20.324Z,3.05
2023-02-01T07:01:50.217Z,3.03
2023-02-01T07:04:19.036Z,2.92
2023-02-01T07:06:47.692Z,3.53
2023-02-01T07:09:16.358Z,3.78
2023-02-01T07:11:45.110Z,4.97
2023-02-01T07:14:13.890Z,5.50
2023-02-01T07:16:42.471Z,6.80
2023-02-01T07:19:12.560Z,6.85
2023-02-01T07:21:41.081Z,11.90
2023-02-01T07:24:09.814Z,6.55
2023-02-01T07:26:38.414Z,4.88
2023-02-01T07:29:06.993Z,7.97
2023-02-01T07:31:35.652Z,7.15
2023-02-01T07:34:04.521Z,8.73
2023-02-01T07:36:35.408Z,8.30
2023-02-01T07:39:03.957Z,8.13
2023-02-01T07:41:32.476Z,8.68
2023-02-01T07:44:01.334Z,7.63
2023-02-01T07:46:29.889Z,7.70
2023-02-01T07:48:58.562Z,7.38
2023-02-01T07:51:27.141Z,8.18
2023-02-01T07:53:57.357Z,7.25
2023-02-01T07:56:27.023Z,7.20
2023-02-01T07:58:57.285Z,7.25
2023-02-01T08:01:26.486Z,7.30
2023-02-01T08:03:56.319Z,7.38
2023-02-01T08:06:25.894Z,8.32
2023-02-01T08:08:56.175Z,7.07
2023-02-01T08:11:24.956Z,7.20
2023-02-01T08:13:54.502Z,7.28
2023-02-01T08:16:23.582Z,7.78
2023-02-01T08:18:52.263Z,7.25
2023-02-01T08:21:23.084Z,7.53
2023-02-01T08:23:51.669Z,7.20
2023-02-01T08:26:23.192Z,7.40
2023-02-01T08:28:53.183Z,7.00
2023-02-01T08:31:24.040Z,7.22
2023-02-01T08:33:54.219Z,7.18
2023-02-01T08:36:23.089Z,6.57
2023-02-01T08:38:51.917Z,6.70
2023-02-01T08:41:23.706Z,6.72
2023-02-01T08:43:52.336Z,7.18
2023-02-01T08:46:21.091Z,6.68
2023-02-01T08:48:49.765Z,7.00
2023-02-01T08:51:19.950Z,6.60
2023-02-01T08:53:48.468Z,6.22
2023-02-01T08:56:17.888Z,6.88
2023-02-01T08:58:48.249Z,6.72
2023-02-01T09:01:18.529Z,6.63
2023-02-01T09:03:48.062Z,6.60
2023-02-01T09:06:17.444Z,6.38
2023-02-01T09:08:46.296Z,6.93
2023-02-01T09:11:17.681Z,6.47
2023-02-01T09:13:47.656Z,6.43
2023-02-01T09:16:17.073Z,6.68
2023-02-01T09:18:56.038Z,7.10
2023-02-01T09:21:30.980Z,6.10
2023-02-01T09:23:59.691Z,6.07
2023-02-01T09:26:32.791Z,6.35
2023-02-01T09:29:03.050Z,6.05
2023-02-01T09:31:31.720Z,6.00
2023-02-01T09:34:00.466Z,6.47
2023-02-01T09:36:31.160Z,6.97
2023-02-01T09:38:59.991Z,5.55
2023-02-01T09:41:39.509Z,6.10
2023-02-01T09:44:19.196Z,5.93
2023-02-01T09:46:47.858Z,6.10
2023-02-01T09:49:18.463Z,5.70
2023-02-01T09:51:48.528Z,5.97
2023-02-01T09:54:18.843Z,6.13
2023-02-01T09:56:50.638Z,6.43
2023-02-01T09:59:32.945Z,6.32
2023-02-01T10:02:01.643Z,6.45
2023-02-01T10:04:30.501Z,5.82
2023-02-01T10:07:11.840Z,6.03
2023-02-01T10:09:55.461Z,5.75
2023-02-01T10:12:58.688Z,5.07
2023-02-01T10:15:40.064Z,5.93
2023-02-01T10:18:39.647Z,5.45
2023-02-01T10:21:16.713Z,5.25
2023-02-01T10:24:18.787Z,5.95
2023-02-01T10:26:49.651Z,5.57
2023-02-01T10:29:20.143Z,5.82
2023-02-01T10:31:50.704Z,4.97
2023-02-01T10:34:23.418Z,4.75
2023-02-01T10:36:56.570Z,5.22
2023-02-01T10:39:25.110Z,5.60
2023-02-01T10:41:53.966Z,5.43
2023-02-01T10:44:26.211Z,5.57
2023-02-01T10:46:56.557Z,5.45
2023-02-01T10:49:28.997Z,5.75
2023-02-01T10:52:01.799Z,5.03
2023-02-01T10:54:40.234Z,5.05
2023-02-01T10:57:10.526Z,5.53
2023-02-01T10:59:39.586Z,5.10
2023-02-01T11:02:24.829Z,5.25
2023-02-01T11:04:53.690Z,5.30
2023-02-01T11:07:25.835Z,5.20
2023-02-01T11:09:57.547Z,5.60
2023-02-01T11:12:33.903Z,6.03
2023-02-01T11:15:15.599Z,5.05
2023-02-01T11:17:47.194Z,4.80
2023-02-01T11:20:17.849Z,5.45
2023-02-01T11:22:50.138Z,4.85
2023-02-01T11:25:19.849Z,5.25
2023-02-01T11:27:54.647Z,4.93
2023-02-01T11:30:33.146Z,4.90
2023-02-01T11:33:05.419Z,5.15
2023-02-01T11:35:35.167Z,5.72
2023-02-01T11:38:11.513Z,5.15
2023-02-01T11:40:40.646Z,5.30
2023-02-01T11:43:14.449Z,4.75
2023-02-01T11:45:43.135Z,5.45
2023-02-01T11:48:26.877Z,4.80
2023-02-01T11:51:14.811Z,5.97
2023-02-01T11:53:59.611Z,4.85
2023-02-01T11:56:34.783Z,4.80
2023-02-01T11:59:18.802Z,4.45
2023-02-01T12:02:05.571Z,5.00
2023-02-01T12:05:14.295Z,4.72
2023-02-01T12:08:18.701Z,5.18
2023-02-01T12:10:57.588Z,4.70
2023-02-01T12:13:39.714Z,4.85
2023-02-01T12:16:19.600Z,5.00
2023-02-01T12:19:22.443Z,4.78
2023-02-01T12:22:04.070Z,4.20
2023-02-01T12:25:13.547Z,4.57
2023-02-01T12:27:55.857Z,4.78
2023-02-01T12:31:18.027Z,4.43
2023-02-01T12:34:21.253Z,4.40
2023-02-01T12:36:53.513Z,3.90
2023-02-01T12:39:26.804Z,5.00
2023-02-01T12:42:00.387Z,4.63
2023-02-01T12:44:37.969Z,4.53
2023-02-01T12:47:19.066Z,3.90
2023-02-01T12:49:53.916Z,4.32
2023-02-01T12:52:36.455Z,4.22
2023-02-01T12:55:12.701Z,4.00
2023-02-01T12:57:45.367Z,4.40
2023-02-01T13:00:23.898Z,4.43
2023-02-01T13:03:01.658Z,4.38
2023-02-01T13:05:33.562Z,3.97
2023-02-01T13:08:06.758Z,4.18
2023-02-01T13:10:39.479Z,4.20
2023-02-01T13:13:22.641Z,4.32
2023-02-01T13:15:57.180Z,3.95
2023-02-01T13:18:32.794Z,3.92
2023-02-01T13:21:10.641Z,4.18
2023-02-01T13:23:43.144Z,4.22
2023-02-01T13:26:14.497Z,4.43
2023-02-01T13:28:47.159Z,4.00
2023-02-01T13:32:01.596Z,3.80
2023-02-01T13:35:01.147Z,3.95
2023-02-01T13:37:45.306Z,4.15
2023-02-01T13:40:36.348Z,4.10
2023-02-01T13:43:09.907Z,4.25
2023-02-01T13:45:45.817Z,4.28
2023-02-01T13:48:23.413Z,4.47
2023-02-01T13:50:55.957Z,4.32
2023-02-01T13:53:30.495Z,4.20
2023-02-01T13:56:03.191Z,4.10
2023-02-01T13:58:36.045Z,4.20
2023-02-01T14:01:46.528Z,4.35
2023-02-01T14:04:49.501Z,4.13
2023-02-01T14:07:22.533Z,4.05
2023-02-01T14:09:51.432Z,4.22
2023-02-01T14:12:46.458Z,3.85
2023-02-01T14:15:34.319Z,4.10
2023-02-01T14:18:03.094Z,4.20
2023-02-01T14:20:45.079Z,4.30
2023-02-01T14:23:32.067Z,4.15
2023-02-01T14:26:16.631Z,4.00
2023-02-01T14:28:49.420Z,3.88
2023-02-01T14:31:51.098Z,3.88
2023-02-01T14:34:24.001Z,4.10
2023-02-01T14:36:56.985Z,4.05
2023-02-01T14:39:30.799Z,4.10
2023-02-01T14:42:02.847Z,3.88
2023-02-01T14:44:37.982Z,4.28
2023-02-01T14:47:32.000Z,3.92
2023-02-01T14:50:34.763Z,4.05
2023-02-01T14:53:21.446Z,3.80
2023-02-01T14:55:52.630Z,4.25
2023-02-01T14:58:37.965Z,4.25
2023-02-01T15:01:08.583Z,4.20
2023-02-01T15:03:58.867Z,4.10
2023-02-01T15:06:34.702Z,4.30
2023-02-01T15:09:06.563Z,4.45
2023-02-01T15:11:35.472Z,4.18
2023-02-01T15:14:04.197Z,4.10
2023-02-01T15:16:33.443Z,4.63
2023-02-01T15:19:15.367Z,4.25
2023-02-01T15:21:49.838Z,4.68
2023-02-01T15:24:23.802Z,5.00
2023-02-01T15:26:52.680Z,4.30
2023-02-01T15:29:21.860Z,4.18
2023-02-01T15:31:51.808Z,4.13
2023-02-01T15:34:22.646Z,4.68
2023-02-01T15:37:02.487Z,4.90
2023-02-01T15:39:33.388Z,4.18
2023-02-01T15:42:04.115Z,4.65
2023-02-01T15:44:41.398Z,4.00
2023-02-01T15:47:18.316Z,4.55
2023-02-01T15:49:49.910Z,4.70
2023-02-01T15:52:28.955Z,4.35
2023-02-01T15:55:00.421Z,4.53
2023-02-01T15:57:32.718Z,5.15
2023-02-01T16:00:04.353Z,4.93
2023-02-01T16:02:39.000Z,5.13
2023-02-01T16:05:36.797Z,5.25
2023-02-01T16:08:09.211Z,4.90
2023-02-01T16:10:42.326Z,4.57
2023-02-01T16:13:11.279Z,5.00
2023-02-01T16:15:39.982Z,4.75
2023-02-01T16:18:09.299Z,4.72
2023-02-01T16:20:40.101Z,5.35
2023-02-01T16:23:09.053Z,4.72
2023-02-01T16:25:37.841Z,4.65
2023-02-01T16:28:07.199Z,4.50
2023-02-01T16:30:36.099Z,4.60
2023-02-01T16:33:06.334Z,4.80
2023-02-01T16:35:37.468Z,4.93
2023-02-01T16:38:13.898Z,5.32
2023-02-01T16:40:42.982Z,5.22
2023-02-01T16:43:15.824Z,4.53
2023-02-01T16:45:46.359Z,4.82
2023-02-01T16:48:20.465Z,4.93
2023-02-01T16:50:49.251Z,4.88
2023-02-01T16:53:19.789Z,4.85
2023-02-01T16:55:50.621Z,4.90
2023-02-01T16:58:19.395Z,5.47
2023-02-01T17:00:48.459Z,5.03
2023-02-01T17:03:17.629Z,5.65
2023-02-01T17:05:47.297Z,4.93
2023-02-01T17:08:20.611Z,5.03
2023-02-01T17:10:49.487Z,5.03
2023-02-01T17:13:18.658Z,4.93
2023-02-01T17:15:51.566Z,4.90
2023-02-01T17:18:20.277Z,4.93
2023-02-01T17:20:53.165Z,5.15
2023-02-01T17:23:23.321Z,5.00
2023-02-01T17:25:52.086Z,5.13
2023-02-01T17:28:20.632Z,5.03
2023-02-01T17:30:49.565Z,5.05
2023-02-01T17:33:23.993Z,4.80
2023-02-01T17:35:53.769Z,5.40
2023-02-01T17:38:23.776Z,5.05
2023-02-01T17:40:52.608Z,4.80
2023-02-01T17:43:24.504Z,4.72
2023-02-01T17:45:56.751Z,4.75
2023-02-01T17:48:27.849Z,4.72
2023-02-01T17:50:58.999Z,4.45
2023-02-01T17:53:29.554Z,5.07
2023-02-01T17:55:58.777Z,4.90
2023-02-01T17:58:30.518Z,4.55
2023-02-01T18:00:59.413Z,4.60
2023-02-01T18:03:30.122Z,4.80
2023-02-01T18:05:59.739Z,4.78
2023-02-01T18:08:30.717Z,4.63
2023-02-01T18:11:01.032Z,4.57
2023-02-01T18:13:29.866Z,4.80
2023-02-01T18:15:59.892Z,5.05
2023-02-01T18:18:30.870Z,4.80
2023-02-01T18:20:59.457Z,4.95
2023-02-01T18:23:29.509Z,4.75
2023-02-01T18:25:58.210Z,4.85
2023-02-01T18:28:26.895Z,4.78
2023-02-01T18:30:55.759Z,4.93
2023-02-01T18:33:24.665Z,4.80
2023-02-01T18:35:53.498Z,4.80
2023-02-01T18:38:22.141Z,5.38
2023-02-01T18:40:53.340Z,4.35
2023-02-01T18:43:22.192Z,4.68
2023-02-01T18:45:50.822Z,4.45
2023-02-01T18:48:22.509Z,4.85
2023-02-01T18:50:57.277Z,4.50
2023-02-01T18:53:27.616Z,5.40
2023-02-01T18:55:58.167Z,4.60
2023-02-01T18:58:27.383Z,6.50
2023-02-01T19:00:57.760Z,13.50
2023-02-01T19:03:27.066Z,9.20
2023-02-01T19:05:57.011Z,8.57
2023-02-01T19:08:26.156Z,7.70
2023-02-01T19:10:54.897Z,6.85
2023-02-01T19:13:28.011Z,7.72
2023-02-01T19:15:57.916Z,7.55
2023-02-01T19:18:26.794Z,8.48
2023-02-01T19:20:55.343Z,7.47
2023-02-01T19:23:24.231Z,8.35
2023-02-01T19:25:53.116Z,9.80
2023-02-01T19:28:21.704Z,11.10
2023-02-01T19:30:51.894Z,11.48
2023-02-01T19:33:20.577Z,10.63
2023-02-01T19:35:49.154Z,12.55
2023-02-01T19:38:17.764Z,12.13
2023-02-01T19:40:46.403Z,12.70
2023-02-01T19:43:15.109Z,12.20
2023-02-01T19:45:44.360Z,11.63
2023-02-01T19:48:15.837Z,10.80
2023-02-01T19:50:45.690Z,10.68
2023-02-01T19:53:14.413Z,10.77
2023-02-01T19:55:46.765Z,10.38
2023-02-01T19:58:15.365Z,10.07
2023-02-01T20:00:43.077Z,11.32
2023-02-01T20:03:13.092Z,11.55
2023-02-01T20:05:43.109Z,9.77
2023-02-01T20:08:11.753Z,9.90
2023-02-01T20:10:44.787Z,10.88
2023-02-01T20:13:13.600Z,10.68
2023-02-01T20:15:42.920Z,10.43
2023-02-01T20:18:13.018Z,10.27
2023-02-01T20:20:42.605Z,8.75
2023-02-01T20:23:11.198Z,9.95
2023-02-01T20:25:41.486Z,9.45
2023-02-01T20:28:11.499Z,9.50
2023-02-01T20:30:41.259Z,10.32
2023-02-01T20:33:10.025Z,9.77
2023-02-01T20:35:40.032Z,8.38
2023-02-01T20:38:08.673Z,8.60
2023-02-01T20:40:39.168Z,9.20
2023-02-01T20:43:08.929Z,8.30
2023-02-01T20:45:40.999Z,8.43
2023-02-01T20:48:09.722Z,8.45
2023-02-01T20:50:39.896Z,8.35
2023-02-01T20:53:11.088Z,7.60
2023-02-01T20:55:41.396Z,8.05
2023-02-01T20:58:09.972Z,7.97
2023-02-01T21:00:38.621Z,7.88
2023-02-01T21:03:07.462Z,7.38
2023-02-01T21:05:41.172Z,7.93
2023-02-01T21:08:13.283Z,7.45
2023-02-01T21:10:41.938Z,7.78
2023-02-01T21:13:10.662Z,7.60
2023-02-01T21:15:39.250Z,7.90
2023-02-01T21:18:14.717Z,7.72
2023-02-01T21:20:43.496Z,6.95
2023-02-01T21:23:13.482Z,6.45
2023-02-01T21:25:42.159Z,7.45
2023-02-01T21:28:10.872Z,6.85
2023-02-01T21:30:39.625Z,6.85
2023-02-01T21:33:08.260Z,7.18
2023-02-01T21:35:37.071Z,7.25
2023-02-01T21:38:05.792Z,6.57
2023-02-01T21:40:35.762Z,7.13
2023-02-01T21:43:04.335Z,6.47
2023-02-01T21:45:32.930Z,7.28
2023-02-01T21:48:02.242Z,6.70
2023-02-01T21:50:31.230Z,6.55
2023-02-01T21:52:59.777Z,6.28
2023-02-01T21:55:28.388Z,6.13
2023-02-01T21:57:58.318Z,6.45
2023-02-01T22:00:29.829Z,6.50
2023-02-01T22:02:58.473Z,6.10
2023-02-01T22:05:27.545Z,5.80
2023-02-01T22:07:56.152Z,5.20
2023-02-01T22:10:25.029Z,6.20
2023-02-01T22:12:53.535Z,6.00
2023-02-01T22:15:24.574Z,5.90
2023-02-01T22:17:54.087Z,5.90
2023-02-01T22:20:22.709Z,5.68
2023-02-01T22:22:51.347Z,5.70
2023-02-01T22:25:20.226Z,5.95
2023-02-01T22:28:30.387Z,5.78
2023-02-01T22:30:39.863Z,5.30
2023-02-01T22:33:08.420Z,5.15
2023-02-01T22:35:39.033Z,5.10
2023-02-01T22:38:07.654Z,5.45
2023-02-01T22:40:36.230Z,5.30
2023-02-01T22:43:04.865Z,5.15
2023-02-01T22:45:33.619Z,5.25
2023-02-01T22:48:03.513Z,5.05
2023-02-01T22:50:32.343Z,4.70
2023-02-01T22:53:01.102Z,5.25
2023-02-01T22:55:29.688Z,4.72
2023-02-01T22:57:58.205Z,4.80
2023-02-01T23:00:27.156Z,5.03
2023-02-01T23:02:55.768Z,4.75
2023-02-01T23:05:26.754Z,4.72
2023-02-01T23:07:55.415Z,4.30
2023-02-01T23:10:24.069Z,4.80
2023-02-01T23:12:52.595Z,4.05
2023-02-01T23:15:21.426Z,4.88
2023-02-01T23:17:50.084Z,4.45
2023-02-01T23:20:19.886Z,4.50
2023-02-01T23:22:50.411Z,4.38
2023-02-01T23:25:19.675Z,4.28
2023-02-01T23:27:49.352Z,4.15
2023-02-01T23:30:18.400Z,4.40
2023-02-01T23:32:46.925Z,3.72
2023-02-01T23:35:15.804Z,4.22
2023-02-01T23:37:44.522Z,4.00
2023-02-01T23:40:15.226Z,4.28
2023-02-01T23:43:04.078Z,3.70
2023-02-01T23:45:32.660Z,4.40
2023-02-01T23:48:01.259Z,4.28
2023-02-01T23:50:30.338Z,3.38
2023-02-01T23:52:59.001Z,3.85
2023-02-01T23:55:28.906Z,3.47
2023-02-01T23:57:57.480Z,3.78
